createdAt,value
2023-03-22T00:01:32.671Z,457.00
2023-03-22T00:05:32.810Z,446.00
2023-03-22T00:09:32.984Z,449.00
2023-03-22T00:13:35.392Z,449.00
2023-03-22T00:17:33.089Z,451.00
2023-03-22T00:21:33.037Z,451.00
2023-03-22T00:25:33.001Z,453.00
2023-03-22T00:29:32.986Z,452.00
2023-03-22T00:33:32.953Z,455.00
2023-03-22T00:37:32.890Z,455.00
2023-03-22T00:41:32.848Z,453.00
2023-03-22T00:45:32.853Z,452.00
2023-03-22T00:49:32.873Z,454.00
2023-03-22T00:53:32.761Z,449.00
2023-03-22T00:57:32.708Z,450.00
2023-03-22T01:01:32.792Z,453.00
2023-03-22T01:05:32.639Z,456.00
2023-03-22T01:09:32.669Z,459.00
2023-03-22T01:13:32.837Z,460.00
2023-03-22T01:17:32.980Z,453.00
2023-03-22T01:21:33.125Z,455.00
2023-03-22T01:25:33.259Z,452.00
2023-03-22T01:29:33.413Z,454.00
2023-03-22T01:33:33.561Z,452.00
2023-03-22T01:37:33.728Z,450.00
2023-03-22T01:41:33.851Z,453.00
2023-03-22T01:45:34.035Z,454.00
2023-03-22T01:49:34.175Z,448.00
2023-03-22T01:53:34.332Z,451.00
2023-03-22T01:57:34.474Z,451.00
2023-03-22T02:01:34.743Z,450.00
2023-03-22T02:05:34.785Z,453.00
2023-03-22T02:09:34.930Z,454.00
2023-03-22T02:13:35.093Z,459.00
2023-03-22T02:17:35.310Z,458.00
2023-03-22T02:21:35.386Z,458.00
2023-03-22T02:25:35.530Z,456.00
2023-03-22T02:29:35.684Z,453.00
2023-03-22T02:33:35.861Z,451.00
2023-03-22T02:37:35.965Z,456.00
2023-03-22T02:41:36.096Z,456.00
2023-03-22T02:45:36.246Z,457.00
2023-03-22T02:49:36.406Z,456.00
2023-03-22T02:53:36.553Z,453.00
2023-03-22T02:57:36.700Z,450.00
2023-03-22T03:01:36.934Z,446.00
2023-03-22T03:05:36.995Z,443.00
2023-03-22T03:09:37.144Z,451.00
2023-03-22T03:13:37.264Z,445.00
2023-03-22T03:17:37.428Z,449.00
2023-03-22T03:21:37.588Z,449.00
2023-03-22T03:25:37.751Z,455.00
2023-03-22T03:29:37.857Z,461.00
2023-03-22T03:33:37.996Z,460.00
2023-03-22T03:37:38.170Z,452.00
2023-03-22T03:41:38.314Z,452.00
2023-03-22T03:45:38.553Z,448.00
2023-03-22T03:49:38.576Z,449.00
2023-03-22T03:53:38.702Z,450.00
2023-03-22T03:57:38.838Z,447.00
2023-03-22T04:01:38.988Z,448.00
2023-03-22T04:05:39.137Z,450.00
2023-03-22T04:09:39.290Z,447.00
2023-03-22T04:13:39.414Z,454.00
2023-03-22T04:17:39.576Z,456.00
2023-03-22T04:21:39.689Z,455.00
2023-03-22T04:25:39.827Z,456.00
2023-03-22T04:29:39.941Z,453.00
2023-03-22T04:33:40.092Z,450.00
2023-03-22T04:37:40.221Z,450.00
2023-03-22T04:41:40.374Z,447.00
2023-03-22T04:45:40.506Z,447.00
2023-03-22T04:49:40.658Z,454.00
2023-03-22T04:53:40.919Z,455.00
2023-03-22T04:57:40.942Z,453.00
2023-03-22T05:01:41.100Z,452.00
2023-03-22T05:05:41.213Z,449.00
2023-03-22T05:09:41.385Z,449.00
2023-03-22T05:13:41.611Z,453.00
2023-03-22T05:17:41.669Z,454.00
2023-03-22T05:21:41.812Z,447.00
2023-03-22T05:25:41.962Z,449.00
2023-03-22T05:29:42.108Z,454.00
2023-03-22T05:33:42.276Z,455.00
2023-03-22T05:37:42.413Z,460.00
2023-03-22T05:41:42.591Z,453.00
2023-03-22T05:45:42.722Z,458.00
2023-03-22T05:49:42.869Z,457.00
2023-03-22T05:53:43.016Z,452.00
2023-03-22T05:57:43.198Z,456.00
2023-03-22T06:01:43.368Z,457.00
2023-03-22T06:05:43.472Z,453.00
2023-03-22T06:09:43.595Z,452.00
2023-03-22T06:13:43.741Z,444.00
2023-03-22T06:17:43.908Z,443.00
2023-03-22T06:21:43.973Z,451.00
2023-03-22T06:25:44.103Z,446.00
2023-03-22T06:29:44.190Z,488.00
2023-03-22T06:33:44.231Z,512.00
2023-03-22T06:37:44.385Z,618.00
2023-03-22T06:41:44.328Z,753.00
2023-03-22T06:45:44.844Z,829.00
2023-03-22T06:49:44.250Z,884.00
2023-03-22T06:53:44.222Z,918.00
2023-03-22T06:57:44.156Z,958.00
2023-03-22T07:01:44.359Z,1025.00
2023-03-22T07:05:44.100Z,1063.00
2023-03-22T07:09:44.077Z,1064.00
2023-03-22T07:13:44.060Z,1031.00
2023-03-22T07:17:43.984Z,1057.00
2023-03-22T07:21:43.947Z,1069.00
2023-03-22T07:25:44.284Z,1077.00
2023-03-22T07:29:43.874Z,1085.00
2023-03-22T07:33:43.850Z,1150.00
2023-03-22T07:37:43.804Z,1020.00
2023-03-22T07:41:43.908Z,925.00
2023-03-22T07:45:44.142Z,1019.00
2023-03-22T07:49:44.174Z,988.00
2023-03-22T07:53:44.300Z,996.00
2023-03-22T07:57:44.391Z,1067.00
2023-03-22T08:01:44.599Z,1080.00
2023-03-22T08:05:44.623Z,1092.00
2023-03-22T08:09:44.636Z,1109.00
2023-03-22T08:13:44.798Z,1119.00
2023-03-22T08:17:44.723Z,1137.00
2023-03-22T08:21:44.746Z,1158.00
2023-03-22T08:25:44.808Z,1166.00
2023-03-22T08:29:44.809Z,1148.00
2023-03-22T08:33:44.895Z,1145.00
2023-03-22T08:37:44.956Z,1214.00
2023-03-22T08:41:45.326Z,1211.00
2023-03-22T08:45:45.091Z,1171.00
2023-03-22T08:49:45.366Z,886.00
2023-03-22T08:53:45.304Z,1088.00
2023-03-22T08:57:45.816Z,1083.00
2023-03-22T09:01:45.578Z,1058.00
2023-03-22T09:05:45.554Z,785.00
2023-03-22T09:09:45.748Z,665.00
2023-03-22T09:13:45.818Z,646.00
2023-03-22T09:17:45.862Z,657.00
2023-03-22T09:21:46.330Z,644.00
2023-03-22T09:25:46.014Z,508.00
2023-03-22T09:29:46.012Z,491.00
2023-03-22T09:33:46.017Z,482.00
2023-03-22T09:37:46.020Z,475.00
2023-03-22T09:41:46.073Z,539.00
2023-03-22T09:45:45.937Z,555.00
2023-03-22T09:49:53.290Z,579.00
2023-03-22T09:53:46.843Z,586.00
2023-03-22T09:57:45.821Z,656.00
2023-03-22T10:01:46.006Z,690.00
2023-03-22T10:05:45.765Z,661.00
2023-03-22T10:09:45.690Z,642.00
2023-03-22T10:13:45.657Z,657.00
2023-03-22T10:17:45.641Z,791.00
2023-03-22T10:21:45.885Z,779.00
2023-03-22T10:25:46.092Z,840.00
2023-03-22T10:29:46.351Z,720.00
2023-03-22T10:33:46.193Z,719.00
2023-03-22T10:37:46.192Z,695.00
2023-03-22T10:41:46.353Z,682.00
2023-03-22T10:45:46.108Z,679.00
2023-03-22T10:49:46.377Z,670.00
2023-03-22T10:53:46.373Z,661.00
2023-03-22T10:57:45.987Z,651.00
2023-03-22T11:01:47.114Z,646.00
2023-03-22T11:05:45.987Z,638.00
2023-03-22T11:09:45.878Z,627.00
2023-03-22T11:13:45.944Z,621.00
2023-03-22T11:17:46.381Z,606.00
2023-03-22T11:21:46.335Z,677.00
2023-03-22T11:25:46.543Z,676.00
2023-03-22T11:29:46.723Z,654.00
2023-03-22T11:33:46.677Z,619.00
2023-03-22T11:37:46.629Z,557.00
2023-03-22T11:41:46.609Z,547.00
2023-03-22T11:45:46.780Z,557.00
2023-03-22T11:49:46.532Z,552.00
2023-03-22T11:53:46.488Z,564.00
2023-03-22T11:57:46.479Z,547.00
2023-03-22T12:01:46.411Z,559.00
2023-03-22T12:05:46.495Z,566.00
2023-03-22T12:09:46.401Z,570.00
2023-03-22T12:13:46.404Z,579.00
2023-03-22T12:17:46.461Z,476.00
2023-03-22T12:21:46.233Z,465.00
2023-03-22T12:25:46.182Z,450.00
2023-03-22T12:29:46.202Z,442.00
2023-03-22T12:33:46.220Z,430.00
2023-03-22T12:37:46.072Z,425.00
2023-03-22T12:41:46.422Z,418.00
2023-03-22T12:45:46.066Z,417.00
2023-03-22T12:49:46.033Z,415.00
2023-03-22T12:53:46.176Z,417.00
2023-03-22T12:57:46.276Z,418.00
2023-03-22T13:01:46.412Z,415.00
2023-03-22T13:05:46.501Z,408.00
2023-03-22T13:09:46.940Z,409.00
2023-03-22T13:13:46.919Z,427.00
2023-03-22T13:17:47.039Z,421.00
2023-03-22T13:21:46.955Z,430.00
2023-03-22T13:25:47.022Z,451.00
2023-03-22T13:29:47.045Z,452.00
2023-03-22T13:33:47.075Z,451.00
2023-03-22T13:37:47.075Z,451.00
2023-03-22T13:41:47.039Z,455.00
2023-03-22T13:45:47.022Z,459.00
2023-03-22T13:49:46.960Z,460.00
2023-03-22T13:53:46.952Z,457.00
2023-03-22T13:57:46.939Z,458.00
2023-03-22T14:01:47.016Z,459.00
2023-03-22T14:05:47.029Z,459.00
2023-03-22T14:09:46.961Z,461.00
2023-03-22T14:13:46.992Z,454.00
2023-03-22T14:17:48.780Z,457.00
2023-03-22T14:21:46.998Z,458.00
2023-03-22T14:46:37.898Z,454.00
2023-03-22T14:50:37.900Z,453.00
2023-03-22T14:54:37.900Z,452.00
2023-03-22T14:58:37.897Z,455.00
2023-03-22T15:02:38.012Z,455.00
2023-03-22T15:06:37.498Z,453.00
2023-03-22T15:10:37.476Z,454.00
2023-03-22T15:14:37.437Z,455.00
2023-03-22T15:18:37.565Z,445.00
2023-03-22T15:22:37.538Z,443.00
2023-03-22T15:26:37.481Z,449.00
2023-03-22T15:30:37.454Z,451.00
2023-03-22T15:34:37.413Z,448.00
2023-03-22T15:38:43.296Z,453.00
2023-03-22T15:42:38.322Z,453.00
2023-03-22T15:46:37.334Z,452.00
2023-03-22T15:50:37.313Z,459.00
2023-03-22T15:54:37.262Z,456.00
2023-03-22T15:58:37.230Z,457.00
2023-03-22T16:02:37.186Z,458.00
2023-03-22T16:06:37.177Z,457.00
2023-03-22T16:10:37.137Z,450.00
2023-03-22T16:14:38.356Z,453.00
2023-03-22T16:18:37.032Z,452.00
2023-03-22T16:22:37.009Z,453.00
2023-03-22T16:26:37.174Z,449.00
2023-03-22T16:30:37.155Z,446.00
2023-03-22T16:34:37.110Z,447.00
2023-03-22T16:38:37.095Z,449.00
2023-03-22T16:42:37.048Z,448.00
2023-03-22T16:46:37.195Z,445.00
2023-03-22T16:50:36.975Z,445.00
2023-03-22T16:54:37.947Z,447.00
2023-03-22T16:58:36.901Z,445.00
2023-03-22T17:02:36.864Z,444.00
2023-03-22T17:06:36.809Z,453.00
2023-03-22T17:10:36.781Z,455.00
2023-03-22T17:14:36.744Z,447.00
2023-03-22T17:18:36.718Z,448.00
2023-03-22T17:22:36.659Z,453.00
2023-03-22T17:26:36.727Z,450.00
2023-03-22T17:30:36.704Z,444.00
2023-03-22T17:34:36.543Z,445.00
2023-03-22T17:42:36.495Z,455.00
2023-03-22T17:47:13.424Z,456.00
2023-03-22T17:50:37.432Z,450.00
2023-03-22T17:58:41.709Z,448.00
2023-03-22T18:02:36.572Z,447.00
2023-03-22T18:06:36.600Z,451.00
2023-03-22T18:10:36.647Z,441.00
2023-03-22T18:14:41.160Z,445.00
2023-03-22T18:18:36.704Z,444.00
2023-03-22T18:22:36.669Z,444.00
2023-03-22T18:30:36.630Z,445.00
2023-03-22T18:34:36.554Z,445.00
2023-03-22T18:39:16.858Z,448.00
2023-03-22T18:42:48.149Z,450.00
2023-03-22T18:46:37.502Z,447.00
2023-03-22T18:50:36.413Z,447.00
2023-03-22T18:54:39.038Z,450.00
2023-03-22T18:58:36.502Z,452.00
2023-03-22T19:02:39.894Z,452.00
2023-03-22T19:06:36.507Z,453.00
2023-03-22T19:10:36.494Z,449.00
2023-03-22T19:18:36.517Z,444.00
2023-03-22T19:22:36.128Z,444.00
2023-03-22T19:26:39.828Z,450.00
2023-03-22T19:30:36.502Z,455.00
2023-03-22T19:34:36.010Z,449.00
2023-03-22T19:38:36.090Z,451.00
2023-03-22T19:42:36.827Z,451.00
2023-03-22T19:46:36.071Z,447.00
2023-03-22T19:50:35.859Z,443.00
2023-03-22T19:54:43.401Z,443.00
2023-03-22T19:58:36.840Z,449.00
2023-03-22T20:02:35.778Z,448.00
2023-03-22T20:06:36.589Z,441.00
2023-03-22T20:10:35.698Z,439.00
2023-03-22T20:14:35.669Z,436.00
2023-03-22T20:18:35.629Z,441.00
2023-03-22T20:22:35.585Z,444.00
2023-03-22T20:26:35.560Z,447.00
2023-03-22T20:30:35.504Z,450.00
2023-03-22T20:34:35.517Z,451.00
2023-03-22T20:38:35.540Z,447.00
2023-03-22T20:42:35.575Z,445.00
2023-03-22T20:46:35.602Z,445.00
2023-03-22T20:50:35.654Z,441.00
2023-03-22T20:54:35.689Z,442.00
2023-03-22T20:58:35.707Z,441.00
2023-03-22T21:02:35.731Z,446.00
2023-03-22T21:06:35.775Z,447.00
2023-03-22T21:10:35.825Z,451.00
2023-03-22T21:14:35.867Z,453.00
2023-03-22T21:18:35.895Z,455.00
2023-03-22T21:22:35.959Z,454.00
2023-03-22T21:26:35.993Z,454.00
2023-03-22T21:30:36.040Z,456.00
2023-03-22T21:34:36.144Z,453.00
2023-03-22T21:38:36.270Z,451.00
2023-03-22T21:42:36.986Z,448.00
2023-03-22T21:46:36.505Z,450.00
2023-03-22T21:50:36.592Z,449.00
2023-03-22T21:54:36.682Z,452.00
2023-03-22T21:58:36.793Z,452.00
2023-03-22T22:02:36.893Z,449.00
2023-03-22T22:06:37.000Z,449.00
2023-03-22T22:10:37.113Z,451.00
2023-03-22T22:14:37.217Z,450.00
2023-03-22T22:18:37.332Z,445.00
2023-03-22T22:22:37.412Z,453.00
2023-03-22T22:26:37.511Z,454.00
2023-03-22T22:30:37.630Z,455.00
2023-03-22T22:34:37.707Z,458.00
2023-03-22T22:38:37.823Z,452.00
2023-03-22T22:42:37.925Z,452.00
2023-03-22T22:46:38.044Z,449.00
2023-03-22T22:50:38.136Z,447.00
2023-03-22T22:54:38.217Z,445.00
2023-03-22T22:58:38.321Z,446.00
2023-03-22T23:02:38.445Z,447.00
2023-03-22T23:06:38.518Z,451.00
2023-03-22T23:10:38.627Z,450.00
2023-03-22T23:14:38.745Z,443.00
2023-03-22T23:18:38.845Z,446.00
2023-03-22T23:22:38.947Z,447.00
2023-03-22T23:26:39.082Z,448.00
2023-03-22T23:30:39.150Z,454.00
2023-03-22T23:34:39.222Z,451.00
2023-03-22T23:38:39.326Z,453.00
2023-03-22T23:42:39.485Z,448.00
2023-03-22T23:46:39.562Z,447.00
2023-03-22T23:50:39.681Z,448.00
2023-03-22T23:54:39.770Z,448.00
2023-03-22T23:58:39.919Z,445.00
